Time;durP1;ratioP1;P1;durP2;ratioP2;P2;SDS_P1;SDS_P2;PMS_P1;PMS_P2;Temp;Humidity;BMP_temperature;BMP_pressure;BME280_temperature;BME280_humidity;BME280_pressure;Samples;Min_cycle;Max_cycle;Signal;HPM_P1;HPM_P2
2023/09/02 00:00:34;;;;;;;5.00;3.20;;;16.10;99.90;;;;;;5009420;28;20192;-44
2023/09/02 00:03:00;;;;;;;4.70;3.38;;;16.00;99.90;;;;;;5009432;28;20223;-43
2023/09/02 00:05:26;;;;;;;3.35;2.55;;;16.00;99.90;;;;;;5009458;28;20188;-43
2023/09/02 00:07:52;;;;;;;4.38;3.00;;;16.00;99.90;;;;;;5009128;28;20179;-44
2023/09/02 00:10:18;;;;;;;4.07;2.90;;;16.00;99.90;;;;;;5009140;28;20176;-43
2023/09/02 00:12:44;;;;;;;4.40;2.80;;;16.00;99.90;;;;;;5008765;28;20458;-44
2023/09/02 00:15:10;;;;;;;4.30;3.07;;;15.90;99.90;;;;;;5012218;28;20189;-43
2023/09/02 00:17:36;;;;;;;4.57;2.97;;;15.90;99.90;;;;;;4976558;28;20191;-44
2023/09/02 00:20:05;;;;;;;4.70;2.47;;;15.90;99.90;;;;;;5004002;28;20183;-43
2023/09/02 00:22:32;;;;;;;3.90;2.80;;;15.90;99.90;;;;;;5008706;28;20223;-44
2023/09/02 00:24:58;;;;;;;4.97;3.20;;;15.90;99.90;;;;;;5008784;28;20283;-44
2023/09/02 00:27:24;;;;;;;6.35;3.20;;;15.90;99.90;;;;;;4998237;28;20183;-44
2023/09/02 00:29:50;;;;;;;4.25;2.90;;;15.80;99.90;;;;;;5009474;28;20182;-44
2023/09/02 00:32:16;;;;;;;4.73;3.20;;;15.80;99.90;;;;;;5007777;28;20283;-45
2023/09/02 00:34:42;;;;;;;5.50;3.13;;;15.80;99.90;;;;;;5009454;28;20227;-44
2023/09/02 00:37:08;;;;;;;4.70;3.10;;;15.90;99.90;;;;;;5008865;28;20238;-44
2023/09/02 00:39:34;;;;;;;3.95;2.72;;;15.90;99.90;;;;;;4989878;28;20416;-44
2023/09/02 00:42:01;;;;;;;7.07;3.15;;;15.90;99.90;;;;;;5008779;28;20211;-43
2023/09/02 00:44:27;;;;;;;5.25;2.92;;;15.90;99.90;;;;;;5007458;28;20206;-44
2023/09/02 00:46:56;;;;;;;4.40;3.08;;;15.80;99.90;;;;;;5008978;28;20176;-43
2023/09/02 00:49:23;;;;;;;4.15;3.15;;;15.80;99.90;;;;;;5005601;28;20180;-44
2023/09/02 00:51:49;;;;;;;4.82;3.58;;;15.90;99.90;;;;;;4971818;28;20179;-44
2023/09/02 00:54:15;;;;;;;4.53;3.15;;;15.90;99.90;;;;;;4974401;28;20203;-43
2023/09/02 00:56:41;;;;;;;4.15;2.88;;;15.90;99.90;;;;;;4979255;28;20187;-43
2023/09/02 00:59:07;;;;;;;4.83;3.10;;;15.90;99.90;;;;;;5008541;28;20172;-44
2023/09/02 01:01:35;;;;;;;4.85;3.30;;;15.80;99.90;;;;;;4981808;28;20225;-45
2023/09/02 01:04:04;;;;;;;5.57;3.03;;;15.80;99.90;;;;;;4988655;28;20253;-44
2023/09/02 01:06:31;;;;;;;4.55;2.83;;;15.70;99.90;;;;;;5011341;28;20191;-45
2023/09/02 01:08:57;;;;;;;5.60;3.20;;;15.70;99.90;;;;;;5008957;28;20172;-44
2023/09/02 01:11:23;;;;;;;3.40;2.60;;;15.70;99.90;;;;;;5007854;28;20191;-43
2023/09/02 01:13:49;;;;;;;5.30;2.73;;;15.70;99.90;;;;;;4978935;28;20199;-44
2023/09/02 01:16:15;;;;;;;4.10;3.00;;;15.60;99.90;;;;;;4976169;28;20188;-44
2023/09/02 01:18:41;;;;;;;5.77;2.90;;;15.60;99.90;;;;;;5008430;28;20192;-44
2023/09/02 01:21:31;;;;;;;5.57;2.97;;;15.60;99.90;;;;;;5008195;28;20187;-43
2023/09/02 01:24:25;;;;;;;4.80;2.57;;;15.60;99.90;;;;;;4969192;28;20211;-43
2023/09/02 01:27:15;;;;;;;6.23;2.90;;;15.40;99.90;;;;;;4995103;28;20240;-45
2023/09/02 01:30:03;;;;;;;4.43;2.70;;;15.40;99.90;;;;;;4991522;28;20176;-43
2023/09/02 01:32:34;;;;;;;3.33;2.73;;;15.30;99.90;;;;;;5008135;28;20214;-44
2023/09/02 01:35:05;;;;;;;6.30;3.10;;;15.30;99.90;;;;;;4995089;28;20222;-43
2023/09/02 01:37:42;;;;;;;3.93;2.80;;;15.30;99.90;;;;;;5009627;28;20243;-45
2023/09/02 01:40:11;;;;;;;4.70;2.57;;;15.30;99.90;;;;;;4995009;28;20187;-43
2023/09/02 01:42:38;;;;;;;4.47;2.87;;;15.30;99.90;;;;;;4983355;28;20215;-44
2023/09/02 01:45:04;;;;;;;3.87;2.50;;;15.20;99.90;;;;;;4982911;28;20195;-44
2023/09/02 01:47:31;;;;;;;5.87;2.90;;;15.20;99.90;;;;;;4986125;28;20180;-44
2023/09/02 01:49:58;;;;;;;4.27;2.80;;;15.10;99.90;;;;;;4974822;28;20206;-44
2023/09/02 01:52:24;;;;;;;5.77;2.67;;;15.10;99.90;;;;;;5007471;28;20202;-44
2023/09/02 01:54:51;;;;;;;4.20;3.00;;;15.20;99.90;;;;;;4991209;28;20195;-44
2023/09/02 01:57:17;;;;;;;3.80;3.03;;;15.20;99.90;;;;;;4999269;28;20260;-44
2023/09/02 01:59:43;;;;;;;4.73;2.70;;;15.10;99.90;;;;;;4974007;28;20183;-43
2023/09/02 02:02:09;;;;;;;3.33;2.90;;;15.00;99.90;;;;;;5007446;28;20246;-44
2023/09/02 02:04:39;;;;;;;9.70;3.23;;;15.00;99.90;;;;;;5008343;28;20200;-44
2023/09/02 02:07:15;;;;;;;6.03;2.83;;;14.90;99.90;;;;;;4993733;28;20274;-44
2023/09/02 02:09:50;;;;;;;3.73;2.93;;;14.80;99.90;;;;;;5007749;28;20187;-43
2023/09/02 02:12:16;;;;;;;4.03;2.80;;;14.80;99.90;;;;;;4982579;28;20254;-44
2023/09/02 02:14:45;;;;;;;4.87;3.00;;;14.70;99.90;;;;;;4998213;28;20208;-44
2023/09/02 02:17:11;;;;;;;7.13;3.27;;;14.80;99.90;;;;;;4990943;28;20207;-45
2023/09/02 02:19:37;;;;;;;17.27;3.47;;;14.80;99.90;;;;;;4977656;28;20215;-44
2023/09/02 02:22:03;;;;;;;6.77;2.80;;;14.80;99.90;;;;;;5007105;28;20200;-43
2023/09/02 02:24:29;;;;;;;4.17;2.37;;;14.80;99.90;;;;;;4993152;28;20206;-44
2023/09/02 02:26:56;;;;;;;6.87;3.03;;;14.80;99.90;;;;;;5006696;28;20199;-44
2023/09/02 02:29:22;;;;;;;11.10;3.73;;;14.80;99.90;;;;;;4991453;28;20215;-44
2023/09/02 02:31:48;;;;;;;6.13;2.97;;;14.70;99.90;;;;;;5007695;28;20176;-44
2023/09/02 02:34:14;;;;;;;3.90;3.10;;;14.80;99.90;;;;;;5007050;28;20207;-44
2023/09/02 02:36:40;;;;;;;3.83;3.10;;;14.80;99.90;;;;;;5005980;28;20235;-44
2023/09/02 02:39:06;;;;;;;4.13;2.87;;;14.80;99.90;;;;;;5006819;28;20204;-44
2023/09/02 02:41:32;;;;;;;3.43;2.90;;;14.70;99.90;;;;;;5007016;28;20188;-44
2023/09/02 02:43:59;;;;;;;4.47;2.83;;;14.70;99.90;;;;;;5006842;28;20207;-45
2023/09/02 02:46:25;;;;;;;4.20;3.13;;;14.70;99.90;;;;;;5006536;28;20195;-44
2023/09/02 02:48:51;;;;;;;3.50;2.40;;;14.70;99.90;;;;;;5005906;28;20203;-44
2023/09/02 02:51:18;;;;;;;3.00;2.70;;;14.60;99.90;;;;;;5006783;28;20254;-43
2023/09/02 02:53:45;;;;;;;2.50;2.30;;;14.60;99.90;;;;;;5007902;28;20290;-44
2023/09/02 02:56:11;;;;;;;5.27;2.67;;;14.50;99.90;;;;;;5009993;28;20206;-44
2023/09/02 02:58:38;;;;;;;3.50;2.60;;;14.50;99.90;;;;;;5010423;28;20234;-44
2023/09/02 03:01:09;;;;;;;4.67;2.87;;;14.50;99.90;;;;;;5017256;28;20191;-45
2023/09/02 03:03:35;;;;;;;2.80;2.53;;;14.50;99.90;;;;;;4999954;28;20207;-43
2023/09/02 03:06:04;;;;;;;3.90;2.57;;;14.50;99.90;;;;;;5011018;28;20203;-43
2023/09/02 03:08:30;;;;;;;3.53;3.07;;;14.50;99.90;;;;;;5002670;28;20187;-44
2023/09/02 03:10:58;;;;;;;8.00;3.20;;;14.60;99.90;;;;;;5013659;28;20179;-43
2023/09/02 03:13:27;;;;;;;2.90;2.60;;;14.60;99.90;;;;;;5010505;28;20226;-44
2023/09/02 03:15:54;;;;;;;4.37;3.00;;;14.60;99.90;;;;;;5005223;28;20195;-43
2023/09/02 03:18:20;;;;;;;3.37;3.00;;;14.60;99.90;;;;;;4977540;28;20180;-44
2023/09/02 03:20:46;;;;;;;4.17;2.77;;;14.60;99.90;;;;;;4985931;28;20274;-44
2023/09/02 03:23:14;;;;;;;4.63;2.70;;;14.60;99.90;;;;;;5009577;28;20295;-43
2023/09/02 03:25:41;;;;;;;3.37;2.57;;;14.60;99.90;;;;;;4995421;28;20203;-44
2023/09/02 03:28:07;;;;;;;3.00;2.70;;;14.60;99.90;;;;;;5009672;28;20191;-44
2023/09/02 03:30:33;;;;;;;5.73;2.50;;;14.60;99.90;;;;;;5009989;28;20188;-45
2023/09/02 03:32:59;;;;;;;3.50;2.33;;;14.60;99.90;;;;;;5012965;28;20203;-44
2023/09/02 03:35:25;;;;;;;3.10;2.30;;;14.60;99.90;;;;;;4977620;28;20279;-43
2023/09/02 03:37:52;;;;;;;4.20;2.43;;;14.60;99.90;;;;;;4984380;28;20188;-43
2023/09/02 03:40:18;;;;;;;5.90;2.97;;;14.50;99.90;;;;;;5010174;28;20184;-43
2023/09/02 03:42:44;;;;;;;2.97;2.40;;;14.50;99.90;;;;;;5011561;28;20215;-44
2023/09/02 03:45:10;;;;;;;2.63;2.30;;;14.40;99.90;;;;;;5001742;28;20180;-42
2023/09/02 03:47:37;;;;;;;5.40;2.60;;;14.40;99.90;;;;;;5010771;28;20184;-43
2023/09/02 03:50:06;;;;;;;3.60;2.60;;;14.40;99.90;;;;;;4980844;28;20187;-43
2023/09/02 03:52:32;;;;;;;4.03;2.47;;;14.40;99.90;;;;;;5009831;28;20191;-43
2023/09/02 03:54:58;;;;;;;3.20;2.20;;;14.40;99.90;;;;;;5013224;28;20175;-44
2023/09/02 03:57:24;;;;;;;4.97;2.70;;;14.30;99.90;;;;;;5009487;28;20186;-45
2023/09/02 03:59:50;;;;;;;3.13;2.30;;;14.30;99.90;;;;;;4984833;28;20195;-44
2023/09/02 04:02:18;;;;;;;3.20;2.40;;;14.20;99.90;;;;;;5010037;28;20705;-44
2023/09/02 04:04:43;;;;;;;2.70;2.37;;;14.20;99.90;;;;;;5009657;28;20235;-44
2023/09/02 04:07:09;;;;;;;2.87;2.50;;;14.10;99.90;;;;;;5008401;28;20182;-43
2023/09/02 04:09:35;;;;;;;2.57;2.37;;;14.10;99.90;;;;;;5009182;28;20211;-44
2023/09/02 04:12:02;;;;;;;2.83;2.30;;;14.10;99.90;;;;;;5008532;28;20189;-44
2023/09/02 04:14:28;;;;;;;3.40;2.17;;;14.10;99.90;;;;;;4984779;28;20281;-44
2023/09/02 04:16:54;;;;;;;4.10;2.60;;;14.10;99.90;;;;;;4992775;28;20180;-44
2023/09/02 04:19:22;;;;;;;3.77;2.10;;;14.10;99.90;;;;;;5008101;28;20180;-44
2023/09/02 04:21:51;;;;;;;3.77;2.27;;;14.10;99.90;;;;;;5009057;28;20187;-43
2023/09/02 04:24:17;;;;;;;2.20;1.80;;;14.10;99.90;;;;;;4984072;28;20196;-43
2023/09/02 04:26:43;;;;;;;3.77;2.13;;;14.00;99.90;;;;;;4998672;28;20187;-44
2023/09/02 04:29:09;;;;;;;3.17;2.40;;;14.00;99.90;;;;;;5008386;28;20192;-44
2023/09/02 04:31:35;;;;;;;5.40;2.27;;;14.00;99.90;;;;;;4978049;28;20190;-44
2023/09/02 04:34:01;;;;;;;9.17;3.20;;;14.00;99.90;;;;;;5012020;28;20211;-44
2023/09/02 04:36:27;;;;;;;3.23;2.80;;;14.00;99.90;;;;;;4980766;28;20184;-44
2023/09/02 04:38:53;;;;;;;4.20;3.10;;;14.00;99.90;;;;;;4975413;28;20180;-44
2023/09/02 04:41:19;;;;;;;4.67;3.00;;;13.90;99.90;;;;;;4984948;28;20199;-43
2023/09/02 04:43:48;;;;;;;4.17;2.80;;;13.90;99.90;;;;;;4983367;28;20238;-44
2023/09/02 04:46:14;;;;;;;6.43;3.07;;;13.80;99.90;;;;;;4962752;28;20188;-44
2023/09/02 04:48:46;;;;;;;2.93;2.20;;;13.70;99.90;;;;;;4968497;28;20173;-44
2023/09/02 04:51:13;;;;;;;3.00;2.70;;;13.60;99.90;;;;;;4984354;28;20172;-44
2023/09/02 04:53:38;;;;;;;2.83;2.30;;;13.60;99.90;;;;;;4983888;28;20216;-44
2023/09/02 04:56:05;;;;;;;2.70;2.20;;;13.60;99.90;;;;;;4986384;28;20262;-44
2023/09/02 04:58:33;;;;;;;2.67;2.43;;;13.70;99.90;;;;;;4970708;28;20180;-44
2023/09/02 05:01:09;;;;;;;3.57;2.20;;;13.70;99.90;;;;;;4979641;28;20183;-44
2023/09/02 05:03:35;;;;;;;2.90;2.10;;;13.70;99.90;;;;;;5008178;28;20222;-44
2023/09/02 05:06:02;;;;;;;3.20;2.30;;;13.70;99.90;;;;;;5011440;28;20179;-44
2023/09/02 05:08:32;;;;;;;3.53;2.00;;;13.70;99.90;;;;;;4979383;28;20184;-44
2023/09/02 05:10:58;;;;;;;3.77;2.23;;;13.80;99.90;;;;;;4975779;28;20183;-44
2023/09/02 05:13:24;;;;;;;2.67;2.00;;;13.80;99.90;;;;;;4983586;28;20200;-45
2023/09/02 05:15:50;;;;;;;3.33;2.13;;;13.80;99.90;;;;;;4984777;28;20207;-44
2023/09/02 05:18:16;;;;;;;2.20;1.83;;;13.90;99.90;;;;;;5007928;28;20271;-45
2023/09/02 05:20:43;;;;;;;1.70;1.60;;;13.90;99.90;;;;;;4990200;28;20192;-45
2023/09/02 05:23:09;;;;;;;2.30;2.00;;;13.90;99.90;;;;;;4975535;28;20207;-45
2023/09/02 05:25:36;;;;;;;3.00;1.80;;;14.00;99.90;;;;;;4971622;28;20203;-45
2023/09/02 05:28:02;;;;;;;2.57;1.83;;;14.10;99.90;;;;;;4992076;28;20180;-45
2023/09/02 05:30:28;;;;;;;1.90;1.70;;;14.10;99.90;;;;;;4986599;28;20209;-45
2023/09/02 05:32:54;;;;;;;1.60;1.50;;;14.20;99.90;;;;;;4978001;28;20204;-44
2023/09/02 05:35:20;;;;;;;2.13;1.57;;;14.20;99.90;;;;;;4978450;28;20202;-45
2023/09/02 05:37:46;;;;;;;1.80;1.70;;;14.30;99.90;;;;;;5007706;28;20207;-45
2023/09/02 05:40:12;;;;;;;2.00;1.80;;;14.30;99.90;;;;;;5010680;28;20179;-44
2023/09/02 05:42:38;;;;;;;3.73;1.60;;;14.30;99.90;;;;;;4979772;28;20214;-44
2023/09/02 05:45:05;;;;;;;2.90;1.87;;;14.30;99.90;;;;;;4999396;28;20176;-44
2023/09/02 05:47:31;;;;;;;1.80;1.70;;;14.40;99.90;;;;;;5010218;28;20183;-44
2023/09/02 05:49:56;;;;;;;2.53;1.63;;;14.50;99.90;;;;;;4975396;28;20206;-44
2023/09/02 05:52:22;;;;;;;2.57;1.90;;;14.60;99.90;;;;;;5006938;28;20184;-44
2023/09/02 05:54:48;;;;;;;2.20;1.80;;;14.60;99.90;;;;;;5009016;28;20218;-44
2023/09/02 05:57:14;;;;;;;2.73;2.07;;;14.70;99.90;;;;;;5010658;28;20191;-43
2023/09/02 05:59:40;;;;;;;4.47;1.97;;;14.80;99.90;;;;;;4961783;28;20181;-44
2023/09/02 06:02:06;;;;;;;3.07;2.00;;;14.80;99.90;;;;;;4991090;28;20204;-44
2023/09/02 06:04:31;;;;;;;3.13;2.20;;;14.90;99.90;;;;;;5006971;28;20283;-44
2023/09/02 06:06:57;;;;;;;3.93;1.90;;;15.00;99.90;;;;;;5007001;28;20307;-44
2023/09/02 06:09:26;;;;;;;2.70;2.30;;;15.10;99.90;;;;;;5007220;28;20187;-44
2023/09/02 06:11:52;;;;;;;3.70;2.30;;;15.10;99.90;;;;;;5006667;28;20203;-44
2023/09/02 06:14:18;;;;;;;2.50;2.30;;;15.20;99.90;;;;;;5007095;28;20250;-44
2023/09/02 06:16:44;;;;;;;2.50;2.20;;;15.20;99.90;;;;;;5018424;28;20662;-44
2023/09/02 06:19:09;;;;;;;2.80;2.00;;;15.30;99.90;;;;;;4975200;28;20231;-44
2023/09/02 06:21:35;;;;;;;3.70;2.17;;;15.30;99.90;;;;;;4978452;28;20215;-44
2023/09/02 06:24:01;;;;;;;2.33;2.00;;;15.40;99.90;;;;;;4977734;28;20221;-44
2023/09/02 06:26:27;;;;;;;2.87;2.57;;;15.40;99.90;;;;;;4976328;28;20195;-44
2023/09/02 06:28:53;;;;;;;3.57;2.37;;;15.50;99.90;;;;;;4980070;28;20191;-44
2023/09/02 06:31:18;;;;;;;6.00;2.80;;;15.60;99.90;;;;;;5008286;28;20179;-44
2023/09/02 06:33:44;;;;;;;2.93;2.23;;;15.60;99.90;;;;;;4974097;28;20235;-44
2023/09/02 06:36:11;;;;;;;3.70;2.87;;;15.70;99.90;;;;;;5006665;28;20207;-44
2023/09/02 06:38:37;;;;;;;6.40;2.70;;;15.80;99.90;;;;;;4998390;28;20191;-44
2023/09/02 06:41:14;;;;;;;3.50;2.13;;;15.90;99.90;;;;;;5006779;28;20176;-44
2023/09/02 06:43:41;;;;;;;2.90;2.67;;;16.10;99.90;;;;;;4977162;28;20690;-44
2023/09/02 06:46:15;;;;;;;3.95;2.58;;;16.20;99.90;;;;;;5006056;28;20176;-44
2023/09/02 06:48:41;;;;;;;3.42;2.70;;;16.20;99.90;;;;;;5006566;28;20165;-44
2023/09/02 06:51:06;;;;;;;3.10;2.00;;;16.20;99.90;;;;;;4998335;28;20259;-44
2023/09/02 06:53:32;;;;;;;3.30;2.30;;;16.30;99.90;;;;;;5006889;28;20287;-44
2023/09/02 06:55:58;;;;;;;2.90;2.15;;;16.30;99.90;;;;;;5006425;28;20195;-44
2023/09/02 06:58:24;;;;;;;3.97;2.30;;;16.40;99.90;;;;;;5005894;28;20184;-44
2023/09/02 07:00:50;;;;;;;3.05;2.67;;;16.50;99.90;;;;;;5006451;28;20210;-44
2023/09/02 07:03:15;;;;;;;2.80;2.40;;;16.60;99.90;;;;;;5006205;28;20215;-44
2023/09/02 07:05:41;;;;;;;3.08;2.78;;;16.70;99.90;;;;;;5006455;28;20190;-44
2023/09/02 07:08:07;;;;;;;3.85;2.55;;;16.80;99.90;;;;;;5006425;28;20181;-44
2023/09/02 07:10:33;;;;;;;2.78;2.50;;;16.90;99.90;;;;;;5006332;28;20180;-44
2023/09/02 07:12:59;;;;;;;2.85;2.45;;;16.90;99.90;;;;;;5009448;28;20210;-44
2023/09/02 07:15:24;;;;;;;7.22;2.97;;;17.10;99.90;;;;;;4976072;28;20176;-44
2023/09/02 07:17:52;;;;;;;3.80;2.42;;;17.10;99.90;;;;;;4985064;28;20194;-44
2023/09/02 07:20:18;;;;;;;3.22;2.42;;;17.20;99.90;;;;;;4973778;28;20187;-44
2023/09/02 07:22:43;;;;;;;3.13;2.38;;;17.30;99.90;;;;;;5006068;28;20204;-44
2023/09/02 07:25:09;;;;;;;2.80;2.50;;;17.40;99.90;;;;;;4997919;28;20188;-44
2023/09/02 07:27:35;;;;;;;4.10;2.40;;;17.50;99.90;;;;;;5005916;28;20228;-44
2023/09/02 07:30:01;;;;;;;2.55;2.35;;;17.60;99.90;;;;;;5007684;28;20192;-44
2023/09/02 07:32:27;;;;;;;2.80;2.50;;;17.70;99.90;;;;;;5009623;28;20192;-44
2023/09/02 07:34:53;;;;;;;3.22;2.60;;;17.70;99.90;;;;;;4976804;28;20241;-44
2023/09/02 07:37:18;;;;;;;4.03;2.63;;;17.80;99.90;;;;;;4973657;28;20706;-44
2023/09/02 07:39:44;;;;;;;3.65;2.47;;;17.90;99.90;;;;;;4982056;28;20192;-43
2023/09/02 07:42:10;;;;;;;2.85;2.10;;;18.10;99.90;;;;;;4976496;28;20284;-43
2023/09/02 07:44:36;;;;;;;3.17;2.33;;;18.20;99.90;;;;;;5012734;28;20751;-44
2023/09/02 07:47:01;;;;;;;2.60;2.40;;;18.30;99.90;;;;;;5009273;28;20194;-43
2023/09/02 07:49:27;;;;;;;3.85;2.47;;;18.50;99.90;;;;;;4995842;28;20210;-44
2023/09/02 07:51:53;;;;;;;4.53;2.38;;;18.60;99.90;;;;;;4999068;28;20176;-44
2023/09/02 07:54:19;;;;;;;3.03;2.05;;;18.70;99.90;;;;;;5009716;28;20192;-44
2023/09/02 07:56:44;;;;;;;3.95;2.20;;;18.90;99.90;;;;;;5009047;28;20184;-44
2023/09/02 07:59:10;;;;;;;4.03;2.35;;;18.90;99.90;;;;;;5009274;28;20176;-44
2023/09/02 08:01:36;;;;;;;2.67;2.15;;;19.10;99.90;;;;;;5009464;28;20191;-44
2023/09/02 08:04:02;;;;;;;2.60;2.10;;;19.20;99.90;;;;;;5010481;28;20222;-44
2023/09/02 08:06:28;;;;;;;2.25;2.05;;;19.30;99.90;;;;;;5009392;28;20168;-44
2023/09/02 08:08:54;;;;;;;1.92;1.80;;;19.30;99.90;;;;;;5009298;28;20187;-44
2023/09/02 08:11:20;;;;;;;4.03;2.15;;;19.40;99.90;;;;;;5012024;28;20233;-44
2023/09/02 08:13:46;;;;;;;2.47;2.05;;;19.50;99.90;;;;;;4976341;28;20204;-44
2023/09/02 08:16:12;;;;;;;2.50;2.30;;;19.60;99.90;;;;;;5009070;28;20188;-44
2023/09/02 08:18:38;;;;;;;2.58;2.33;;;19.60;99.90;;;;;;4980003;28;20190;-44
2023/09/02 08:21:10;;;;;;;3.85;2.35;;;19.70;99.90;;;;;;4986221;28;20191;-44
2023/09/02 08:23:38;;;;;;;2.40;2.13;;;19.70;99.90;;;;;;5008814;28;20212;-45
2023/09/02 08:26:13;;;;;;;2.58;2.38;;;19.80;99.90;;;;;;5000533;28;20200;-45
2023/09/02 08:28:40;;;;;;;3.10;2.47;;;20.00;99.90;;;;;;5003911;28;20175;-44
2023/09/02 08:31:06;;;;;;;2.80;2.50;;;20.10;99.90;;;;;;5008982;28;20180;-44
2023/09/02 08:33:34;;;;;;;3.22;2.30;;;20.40;99.90;;;;;;5008698;28;20206;-44
2023/09/02 08:36:00;;;;;;;3.30;2.17;;;20.50;99.90;;;;;;4984493;28;20176;-44
2023/09/02 08:38:26;;;;;;;4.15;2.05;;;20.60;99.90;;;;;;5011748;28;20190;-44
2023/09/02 08:40:53;;;;;;;3.05;1.85;;;20.70;99.90;;;;;;4992025;28;20186;-44
2023/09/02 08:43:20;;;;;;;2.83;2.08;;;20.90;99.90;;;;;;5008106;28;20294;-44
2023/09/02 08:45:51;;;;;;;2.53;1.92;;;20.90;99.90;;;;;;5008313;28;20191;-44
2023/09/02 08:48:23;;;;;;;2.83;2.13;;;21.10;99.90;;;;;;4968027;28;20177;-44
2023/09/02 08:50:53;;;;;;;3.47;2.60;;;21.10;99.90;;;;;;4983232;28;20187;-44
2023/09/02 08:53:27;;;;;;;3.65;2.60;;;21.20;99.90;;;;;;5011039;28;20202;-44
2023/09/02 08:55:54;;;;;;;2.70;2.28;;;21.40;99.90;;;;;;5008062;28;20198;-44
2023/09/02 08:58:20;;;;;;;4.03;2.35;;;21.60;99.90;;;;;;5008276;28;20275;-44
2023/09/02 09:00:46;;;;;;;3.22;2.05;;;21.90;99.90;;;;;;4979080;28;20194;-45
2023/09/02 09:03:14;;;;;;;2.63;2.05;;;22.00;99.90;;;;;;4976613;28;20224;-45
2023/09/02 09:05:42;;;;;;;5.03;2.30;;;22.20;99.90;;;;;;5008166;28;20172;-45
2023/09/02 09:08:09;;;;;;;2.80;2.00;;;22.20;99.90;;;;;;5006732;28;20180;-45
2023/09/02 09:10:36;;;;;;;4.70;2.15;;;22.40;99.90;;;;;;4983770;28;20187;-45
2023/09/02 09:13:08;;;;;;;4.68;2.10;;;22.40;99.90;;;;;;4981535;28;20208;-45
2023/09/02 09:15:35;;;;;;;2.60;1.70;;;22.50;99.90;;;;;;4999145;28;20188;-44
2023/09/02 09:18:05;;;;;;;5.22;2.53;;;22.70;99.90;;;;;;4991631;28;20183;-44
2023/09/02 09:20:32;;;;;;;2.42;1.90;;;22.70;99.90;;;;;;5008097;28;20176;-44
2023/09/02 09:22:58;;;;;;;3.47;2.20;;;22.70;99.90;;;;;;4991150;28;20239;-44
2023/09/02 09:25:24;;;;;;;2.67;2.13;;;22.90;99.90;;;;;;5007786;28;20223;-44
2023/09/02 09:27:50;;;;;;;1.98;1.77;;;23.00;99.90;;;;;;5007519;28;20267;-44
2023/09/02 09:30:30;;;;;;;2.63;1.85;;;23.20;99.90;;;;;;4994127;28;20175;-44
2023/09/02 09:33:01;;;;;;;4.40;1.85;;;23.20;99.90;;;;;;4994442;28;20203;-44
2023/09/02 09:35:28;;;;;;;2.72;1.88;;;23.40;99.90;;;;;;4991259;28;20180;-44
2023/09/02 09:37:54;;;;;;;2.03;1.63;;;23.60;99.90;;;;;;4995881;28;20188;-44
2023/09/02 09:40:38;;;;;;;3.67;2.03;;;23.70;99.90;;;;;;4983206;28;20179;-44
2023/09/02 09:43:17;;;;;;;3.13;1.80;;;23.80;99.90;;;;;;5007436;28;20302;-44
2023/09/02 09:45:50;;;;;;;2.72;1.80;;;23.90;99.90;;;;;;4982943;28;20229;-44
2023/09/02 09:48:16;;;;;;;2.72;1.90;;;24.00;99.90;;;;;;4990138;28;20180;-44
2023/09/02 09:50:42;;;;;;;2.13;1.77;;;24.10;99.90;;;;;;5007015;28;20710;-44
2023/09/02 09:53:09;;;;;;;2.30;1.75;;;24.10;99.90;;;;;;5007177;28;20211;-44
2023/09/02 09:55:37;;;;;;;3.13;1.70;;;24.40;99.90;;;;;;5010101;28;20188;-44
2023/09/02 09:58:03;;;;;;;1.65;1.50;;;24.50;99.90;;;;;;5007142;28;20184;-44
2023/09/02 10:00:29;;;;;;;2.00;1.60;;;24.70;99.90;;;;;;5007240;28;20203;-44
2023/09/02 10:02:59;;;;;;;3.70;1.80;;;24.80;99.90;;;;;;5006973;28;20224;-44
2023/09/02 10:05:27;;;;;;;3.50;1.70;;;24.80;99.90;;;;;;4990270;28;20168;-44
2023/09/02 10:08:04;;;;;;;2.90;1.80;;;24.80;99.90;;;;;;5010255;28;20661;-44
2023/09/02 10:10:34;;;;;;;2.85;1.95;;;24.90;99.90;;;;;;4992135;28;20172;-44
2023/09/02 10:13:01;;;;;;;1.90;1.77;;;25.00;99.90;;;;;;4979709;28;20239;-44
2023/09/02 10:15:28;;;;;;;3.15;2.00;;;24.90;99.90;;;;;;4982277;28;20180;-44
2023/09/02 10:17:56;;;;;;;3.75;1.80;;;24.90;99.90;;;;;;4998715;28;20249;-44
2023/09/02 10:20:25;;;;;;;2.70;1.90;;;25.10;99.90;;;;;;5009761;28;20179;-44
2023/09/02 10:22:53;;;;;;;3.22;1.95;;;25.30;99.90;;;;;;5006512;28;20211;-44
2023/09/02 10:25:27;;;;;;;2.13;1.92;;;25.50;99.90;;;;;;4990907;28;20206;-44
2023/09/02 10:28:02;;;;;;;3.47;2.00;;;25.50;99.90;;;;;;4977436;28;20198;-44
2023/09/02 10:30:45;;;;;;;2.58;1.77;;;25.60;99.90;;;;;;5009812;28;20178;-44
2023/09/02 10:33:35;;;;;;;3.22;1.90;;;25.80;99.90;;;;;;5006349;28;20210;-44
2023/09/02 10:36:05;;;;;;;2.10;1.77;;;25.90;99.90;;;;;;4993184;28;20261;-44
2023/09/02 10:38:41;;;;;;;2.28;1.83;;;26.10;99.90;;;;;;4998366;28;20188;-44
2023/09/02 10:41:15;;;;;;;2.65;1.83;;;26.20;99.90;;;;;;5006797;28;20195;-44
2023/09/02 10:43:42;;;;;;;2.67;1.90;;;26.30;99.90;;;;;;5009661;28;20234;-44
2023/09/02 10:46:08;;;;;;;2.30;1.92;;;26.40;99.90;;;;;;5006574;28;20243;-44
2023/09/02 10:48:38;;;;;;;2.95;1.70;;;26.40;99.90;;;;;;4982069;28;20180;-44
2023/09/02 10:51:05;;;;;;;3.85;2.00;;;26.40;99.90;;;;;;4990645;28;20258;-44
2023/09/02 10:53:54;;;;;;;2.78;1.80;;;26.50;99.90;;;;;;5005666;28;20649;-44
2023/09/02 10:56:35;;;;;;;2.00;1.77;;;26.50;99.90;;;;;;4985731;28;20192;-44
2023/09/02 10:59:05;;;;;;;2.50;1.95;;;26.50;99.90;;;;;;5009713;28;20186;-44
2023/09/02 11:01:49;;;;;;;2.40;1.70;;;26.60;99.90;;;;;;5006417;28;20175;-44
2023/09/02 11:04:55;;;;;;;3.35;1.83;;;26.50;99.90;;;;;;5006072;28;20573;-44
2023/09/02 11:07:24;;;;;;;1.70;1.60;;;26.50;99.90;;;;;;5006381;28;20190;-44
2023/09/02 11:09:57;;;;;;;2.03;1.50;;;26.70;99.90;;;;;;4988309;28;20219;-44
2023/09/02 11:12:23;;;;;;;2.20;1.73;;;27.00;99.90;;;;;;4981858;28;20625;-44
2023/09/02 11:15:07;;;;;;;1.83;1.63;;;27.10;99.90;;;;;;5006520;28;20211;-44
2023/09/02 11:17:38;;;;;;;1.75;1.58;;;27.40;99.90;;;;;;4981409;28;20187;-45
2023/09/02 11:20:04;;;;;;;1.48;1.38;;;27.50;99.90;;;;;;5010067;28;20259;-44
2023/09/02 11:22:56;;;;;;;2.13;1.40;;;27.70;99.90;;;;;;5009631;28;20218;-44
2023/09/02 11:25:31;;;;;;;2.88;1.65;;;27.90;99.90;;;;;;4996183;28;20295;-45
2023/09/02 11:28:01;;;;;;;1.73;1.40;;;28.00;99.90;;;;;;4997496;28;20208;-44
2023/09/02 11:30:31;;;;;;;1.58;1.48;;;28.10;99.90;;;;;;5012817;28;20175;-44
2023/09/02 11:32:58;;;;;;;1.65;1.30;;;28.10;99.90;;;;;;5001374;28;20208;-44
2023/09/02 11:35:25;;;;;;;1.75;1.33;;;28.30;99.90;;;;;;5009551;28;20250;-44
2023/09/02 11:37:51;;;;;;;1.70;1.17;;;28.40;99.90;;;;;;4985315;28;20188;-44
2023/09/02 11:40:19;;;;;;;1.40;1.20;;;28.50;99.90;;;;;;5009917;28;20190;-45
2023/09/02 11:43:01;;;;;;;1.98;1.38;;;28.60;99.90;;;;;;5009616;28;20211;-45
2023/09/02 11:45:31;;;;;;;1.50;1.40;;;28.70;99.90;;;;;;5009541;28;20184;-45
2023/09/02 11:47:57;;;;;;;1.42;1.33;;;28.60;99.90;;;;;;5009372;28;20180;-44
2023/09/02 11:50:23;;;;;;;1.60;1.50;;;28.60;99.90;;;;;;5010549;28;20191;-45
2023/09/02 11:52:53;;;;;;;1.90;1.58;;;28.60;99.90;;;;;;4996207;28;20215;-45
2023/09/02 11:55:19;;;;;;;2.72;1.42;;;28.70;99.90;;;;;;5008929;28;20219;-45
2023/09/02 11:57:46;;;;;;;1.40;1.30;;;29.00;99.90;;;;;;5023731;28;20195;-45
2023/09/02 12:00:17;;;;;;;1.83;1.40;;;29.10;99.90;;;;;;5011549;28;20191;-44
2023/09/02 12:02:45;;;;;;;2.30;1.60;;;29.10;99.90;;;;;;4993152;28;20243;-44
2023/09/02 12:05:11;;;;;;;1.45;1.35;;;29.00;99.90;;;;;;5008764;28;20192;-44
2023/09/02 12:07:39;;;;;;;1.30;1.20;;;29.10;99.90;;;;;;5009359;28;20172;-44
2023/09/02 12:10:13;;;;;;;1.50;1.40;;;29.20;99.90;;;;;;5009231;28;20184;-44
2023/09/02 12:12:44;;;;;;;2.10;1.30;;;29.40;99.90;;;;;;4989280;28;20189;-42
2023/09/02 12:15:18;;;;;;;1.60;1.50;;;29.50;99.90;;;;;;4995349;28;20215;-44
2023/09/02 12:17:46;;;;;;;2.00;1.30;;;29.30;99.90;;;;;;5002156;28;20184;-44
2023/09/02 12:20:13;;;;;;;1.38;1.27;;;29.20;99.90;;;;;;4981383;28;20184;-44
2023/09/02 12:22:41;;;;;;;1.60;1.50;;;29.00;99.90;;;;;;5012122;28;20221;-44
2023/09/02 12:25:25;;;;;;;1.35;1.25;;;29.10;99.90;;;;;;5011706;28;20226;-44
2023/09/02 12:27:53;;;;;;;1.67;1.40;;;29.30;99.90;;;;;;4964486;28;20178;-44
2023/09/02 12:30:33;;;;;;;2.08;1.63;;;29.50;99.90;;;;;;4984241;28;20184;-44
2023/09/02 12:32:59;;;;;;;1.40;1.30;;;29.60;99.90;;;;;;5008734;28;20214;-44
2023/09/02 12:35:25;;;;;;;2.40;1.40;;;29.60;99.90;;;;;;5008552;28;20192;-44
2023/09/02 12:38:05;;;;;;;1.58;1.48;;;29.60;99.90;;;;;;5008635;28;20191;-44
2023/09/02 12:40:31;;;;;;;1.50;1.40;;;29.70;99.90;;;;;;4992825;28;20180;-44
2023/09/02 12:42:58;;;;;;;2.38;1.63;;;29.90;99.90;;;;;;5008323;28;20215;-44
2023/09/02 12:45:40;;;;;;;2.30;1.73;;;30.00;99.90;;;;;;4995218;28;20335;-44
2023/09/02 12:48:07;;;;;;;1.80;1.60;;;30.10;99.90;;;;;;5000423;28;20183;-44
2023/09/02 12:50:34;;;;;;;1.67;1.50;;;30.10;99.90;;;;;;5001542;28;20263;-44
2023/09/02 12:53:02;;;;;;;3.88;1.67;;;30.10;99.90;;;;;;5000147;28;20199;-44